Terminal Aerodrome Forecast
Issued by NWS Amarillo, TX

Home | Current Version | Previous Version | Text Only | Print | Product List | Glossary On
Versions: 1 2 3 4 5 6 7 8 9 10 11 12 13
000
FTUS44 KAMA 291722
TAFDHT
TAF
KDHT 291722Z 2918/3018 19017KT P6SM SCT060 BKN250
     FM292000 19016G25KT P6SM VCTS BKN050CB
     FM300000 15016KT P6SM VCTS BKN040CB
     FM300300 07017KT P6SM OVC030=

USA.gov is the U.S. government's official web portal to all federal, state and local government web resources and services.